Terminal Aerodrome Forecast
Issued by NWS

Home | Current Version | Previous Version | Text Only | Print | Product List | Glossary On
Versions: 1 2 3 4 5 6 7 8 9 10 11 12 13 14
768
FTUS44 KLZK 270145 AAA
TAFLIT
TAF AMD
KLIT 270145Z 2702/2724 13008KT P6SM VCTS BKN040CB
      TEMPO 2702/2703 5SM -RA BR BKN025
     FM270400 VRB03KT P6SM SCT100 BKN250
     FM271100 00000KT 5SM BR BKN250
     FM271500 10003KT P6SM SCT250
     FM271800 11006KT P6SM SCT050=

USA.gov is the U.S. government's official web portal to all federal, state and local government web resources and services.